Central Oregon RPC :: STANDISH CA A

liberation: 2021-06-13  05:30     latitude: 40.366766     longitude: -120.422946 75 birds
# LOFT PRING MILES ARRIVAL SPEED ToWin
1 RUETER FAMILY LOFT AU19-CORP-5438 304.637 2021-06-13 11:05:03.583 1600.193 00:00:00
2 AMERICAN LOFT AU19-CORP-4711 274.861 2021-06-13 10:33:59.042 1591.384 00:01:40
3 AMERICAN LOFT AU19-CORP-4652 274.861 2021-06-13 10:34:04.133 1590.940 00:01:45
4 AMERICAN LOFT AU19-CORP-4735 274.861 2021-06-13 10:34:08.239 1590.582 00:01:50
5 ROCKY TOP AU19-CORP-4477 269.815 2021-06-13 10:29:34.492 1585.160 00:02:49
6 ROCKY TOP AU18-CORP-3353 269.815 2021-06-13 10:29:38.147 1584.838 00:02:53
7 ROCKY TOP AU18-CORP-3300 269.815 2021-06-13 10:29:41.506 1584.541 00:02:56
8 ROCKY TOP AU18-CORP-3313 269.815 2021-06-13 10:30:08.992 1582.123 00:03:23
9 ROCKY TOP AU18-CORP-3351 269.815 2021-06-13 10:30:09.791 1582.053 00:03:24
10 ROCKY TOP AU18-CORP-3371 269.815 2021-06-13 10:30:10.170 1582.020 00:03:25
11 ROCKY TOP AU19-CORP-4400 269.815 2021-06-13 10:30:12.832 1581.786 00:03:27
12 ROCKY TOP AU19-CORP-4405 269.815 2021-06-13 10:30:22.317 1580.953 00:03:37
13 ROCKY TOP AU19-CORP-4474 269.815 2021-06-13 10:30:23.350 1580.863 00:03:38
14 ROCKY TOP AU20-CORP-4476 269.815 2021-06-13 10:30:59.815 1577.671 00:04:14
15 STEELE LOFT AU20-CORP-5080 276.292 2021-06-13 10:38:39.997 1575.402 00:04:47
16 STEELE LOFT AU19-CORP-4022 276.292 2021-06-13 10:38:43.331 1575.118 00:04:50
17 STEELE LOFT AU19-CORP-4006 276.292 2021-06-13 10:38:44.106 1575.052 00:04:51
18 STEELE LOFT AU19-CORP-4008 276.292 2021-06-13 10:38:47.406 1574.772 00:04:54
19 TOPIGEONUSA AU20-CORP-4868 276.13 2021-06-13 10:38:39.772 1574.498 00:04:57
20 TOPIGEONUSA AU20-CORP-4375 276.13 2021-06-13 10:38:43.685 1574.165 00:05:01
21 ROCKY TOP AU19-CORP-4454 269.815 2021-06-13 10:32:03.215 1572.152 00:05:18
22 ROCKY TOP AU19-CORP-4473 269.815 2021-06-13 10:32:38.205 1569.122 00:05:53
23 STEELE LOFT AU19-CORP-4039 276.292 2021-06-13 10:40:18.928 1567.031 00:06:26
24 STEELE LOFT AU20-CORP-5002 276.292 2021-06-13 10:40:27.081 1566.345 00:06:34
25 STEELE LOFT AU20-CORP-5012 276.292 2021-06-13 10:40:27.710 1566.292 00:06:35
26 TOPIGEONUSA AU20-CORP-4841 276.13 2021-06-13 10:41:35.075 1559.734 00:07:53
27 STEELE LOFT AU20-CORP-5088 276.292 2021-06-13 10:43:39.710 1550.312 00:09:47
28 STEELE LOFT AU20-CORP-5017 276.292 2021-06-13 10:43:39.833 1550.302 00:09:47
29 ROCKY TOP AU19-CORP-4435 269.815 2021-06-13 10:37:03.060 1546.564 00:10:17
30 STEELE LOFT AU19-CORP-4024 276.292 2021-06-13 10:47:50.593 1529.917 00:13:58
31 AMERICAN LOFT AU19-CORP-4647 274.861 2021-06-13 10:50:23.652 1509.875 00:18:05
32 TOPIGEONUSA AU20-CORP-4377 276.13 2021-06-13 10:52:08.056 1508.654 00:18:26
33 RUETER FAMILY LOFT AU20-CORP-4574 304.637 2021-06-13 11:25:51.320 1506.681 00:20:48
34 AMERICAN LOFT AU19-CORP-4708 274.861 2021-06-13 10:55:58.731 1484.008 00:23:40
35 AMERICAN LOFT AU19-CORP-4774 274.861 2021-06-13 10:56:09.567 1483.186 00:23:51
36 AMERICAN LOFT AU19-CORP-4683 274.861 2021-06-13 11:02:11.583 1456.247 00:29:53
37 TOPIGEONUSA AU20-CORP-5027 276.13 2021-06-13 11:04:29.284 1452.934 00:30:47
38 STEELE LOFT AU20-CORP-5041 276.292 2021-06-13 11:05:26.400 1449.660 00:31:33
39 ROCKY TOP AU17-CORP-0798 269.815 2021-06-13 11:00:36.786 1436.344 00:33:51
40 STEELE LOFT AU20-CORP-5034 276.292 2021-06-13 11:10:58.899 1426.100 00:37:06
41 TOPIGEONUSA AU20-CORP-4830 276.13 2021-06-13 11:21:44.350 1381.675 00:48:02
42 STEELE LOFT AU19-CORP-4007 276.292 2021-06-13 11:22:21.147 1380.078 00:48:28
43 STEELE LOFT AU20-CORP-5032 276.292 2021-06-13 11:23:37.875 1375.087 00:49:45
44 STEELE LOFT AU20-CORP-5043 276.292 2021-06-13 11:24:21.941 1372.237 00:50:29
45 TOPIGEONUSA AU20-CORP-4373 276.13 2021-06-13 11:24:36.581 1370.490 00:50:54
46 STEELE LOFT AU20-CORP-5011 276.292 2021-06-13 11:27:09.749 1361.492 00:53:17
47 STEELE LOFT AU19-AVI-19525 276.292 2021-06-13 11:28:21.088 1356.975 00:54:28
48 ROCKY TOP AU18-CORP-3343 269.815 2021-06-13 11:22:40.587 1346.486 00:55:55
49 AMERICAN LOFT AU19-CORP-4665 274.861 2021-06-13 11:30:42.637 1341.117 00:58:24
50 STEELE LOFT AU20-CORP-5018 276.292 2021-06-13 11:36:11.970 1327.893 01:02:19
51 RUETER FAMILY LOFT AU20-CORP-4635 304.637 2021-06-13 12:18:33.732 1312.310 01:13:30
52 RUETER FAMILY LOFT AU20-CORP-4527 304.637 2021-06-13 12:27:08.325 1285.328 01:22:05
53 AMERICAN LOFT AU19-CORP-4746 274.861 2021-06-13 11:52:54.302 1263.382 01:20:36
54 AMERICAN LOFT AU19-CORP-4745 274.861 2021-06-13 12:13:55.097 1197.656 01:41:36
55 RUETER FAMILY LOFT AU20-CORP-4580 304.637 2021-06-13 14:06:22.232 1038.325 03:01:19
56 STEELE LOFT AU19-CORP-4035 276.292 2021-06-13 13:25:57.869 1021.660 02:52:05
57 TOPIGEONUSA AU20-CORP-4325 276.13 2021-06-13 14:18:44.733 919.136 03:45:02
58 AMERICAN LOFT AU20-CORP-5485 274.861 2021-06-13 14:33:36.887 889.886 04:01:18
59 RUETER FAMILY LOFT AU20-CORP-4579 304.637 2021-06-13 16:32:07.332 809.760 05:27:04
60 TOPIGEONUSA AU20-CORP-4372 276.13 2021-06-13 16:25:46.311 741.095 05:52:04
61 TOPIGEONUSA AU20-CORP-4324 276.13 2021-06-13 16:52:25.702 712.147 06:18:43
62 TOPIGEONUSA AU20-CORP-4333 276.13 2021-06-13 17:05:12.548 699.055 06:31:30
63 TOPIGEONUSA AU20-CORP-4331 276.13 2021-06-14 09:12:11.296 410.462 14:40:18
AMERICAN LOFT AU19-CORP-4654 0 0000-00-00 00:00:00.000 0.000 00:00:00
AMERICAN LOFT AU19-CORP-4751 0 0000-00-00 00:00:00.000 0.000 00:00:00
ROCKY TOP AU16-CORP-7701 0 0000-00-00 00:00:00.000 0.000 00:00:00
RUETER FAMILY LOFT AU20-CORP-4566 0 0000-00-00 00:00:00.000 0.000 00:00:00
STEELE LOFT AU19-CORP-4004 0 0000-00-00 00:00:00.000 0.000 00:00:00
TIM GRAVES AU13-TCW-3849 0 0000-00-00 00:00:00.000 0.000 00:00:00
TIM GRAVES AU15-CORP-3096 0 0000-00-00 00:00:00.000 0.000 00:00:00
TIM GRAVES AU16-AUB-0602 0 0000-00-00 00:00:00.000 0.000 00:00:00
TIM GRAVES AU16-CORP-6702 0 0000-00-00 00:00:00.000 0.000 00:00:00
TIM GRAVES AU17-FHI-0202 0 0000-00-00 00:00:00.000 0.000 00:00:00
TIM GRAVES AU19-CBF-3498 0 0000-00-00 00:00:00.000 0.000 00:00:00
TIM GRAVES AU20-CORP-4720 0 0000-00-00 00:00:00.000 0.000 00:00:00